YKJ weather

Key Lake Airport
Key Lake, Saskatchewan, Canada

Public forecast

Using degrees Celsius for public forecast. Weather courtesy of forecast.io.

METAR (pilot weather report)

Retrieved 2019/05/21 08:00 UTC (51 minutes ago):

CYKJ 210800Z AUTO 20005KT 9SM CLR 08/M01 A3002 RMK SLP187

TAF (pilot weather forecast)

Forecast is more than 12 hours old.

Retrieved 2019/05/20 19:00 UTC (14 hours ago):

TAF CYKJ 201838Z 2019/2024 19010G20KT P6SM FEW200 RMK FCST BASED ON AUTO OBS. NXT FCST WILL BE ISSUED AT 210945Z